createdAt,value
2017-07-25T00:00:10.266Z,44.9
2017-07-25T00:02:07.605Z,44.9
2017-07-25T00:04:05.319Z,44.9
2017-07-25T00:06:05.080Z,44.9
2017-07-25T00:08:05.977Z,44.9
2017-07-25T00:10:05.674Z,45
2017-07-25T00:12:05.670Z,44.9
2017-07-25T00:14:05.316Z,44.9
2017-07-25T00:16:05.136Z,44.9
2017-07-25T00:18:05.383Z,44.9
2017-07-25T00:20:05.082Z,44.9
2017-07-25T00:22:08.366Z,44.9
2017-07-25T00:24:10.871Z,44.9
2017-07-25T00:26:05.548Z,44.9
2017-07-25T00:28:05.240Z,44.9
2017-07-25T00:30:05.960Z,44.9
2017-07-25T00:32:05.827Z,45
2017-07-25T00:34:05.043Z,45
2017-07-25T00:36:05.352Z,44.9
2017-07-25T00:38:05.056Z,44.9
2017-07-25T00:40:08.317Z,45
2017-07-25T00:42:06.183Z,45
2017-07-25T00:44:05.844Z,45
2017-07-25T00:46:05.537Z,45
2017-07-25T00:48:10.636Z,45
2017-07-25T00:50:05.303Z,45
2017-07-25T00:52:05.947Z,45
2017-07-25T00:54:05.801Z,45
2017-07-25T00:56:08.050Z,45
2017-07-25T00:58:05.377Z,45
2017-07-25T01:00:05.169Z,45
2017-07-25T01:02:07.950Z,45
2017-07-25T01:04:07.787Z,45
2017-07-25T01:06:05.673Z,44.8
2017-07-25T01:08:05.344Z,45
2017-07-25T01:10:05.000Z,45
2017-07-25T01:12:05.779Z,45
2017-07-25T01:14:05.073Z,45
2017-07-25T01:16:08.351Z,44.8
2017-07-25T01:18:05.299Z,45
2017-07-25T01:20:08.749Z,45
2017-07-25T01:22:07.964Z,45
2017-07-25T01:24:08.355Z,44.8
2017-07-25T01:26:05.595Z,45
2017-07-25T01:28:05.381Z,45
2017-07-25T01:30:05.230Z,45
2017-07-25T01:32:05.897Z,45
2017-07-25T01:34:05.258Z,45
2017-07-25T01:36:11.187Z,45.1
2017-07-25T01:38:05.893Z,44.8
2017-07-25T01:40:05.689Z,44.8
2017-07-25T01:42:05.566Z,44.8
2017-07-25T01:44:05.271Z,44.8
2017-07-25T01:46:06.036Z,44.8
2017-07-25T01:48:06.110Z,45.1
2017-07-25T01:50:08.391Z,44.9
2017-07-25T01:52:05.200Z,44.9
2017-07-25T01:54:05.958Z,44.9
2017-07-25T01:56:10.746Z,44.8
2017-07-25T01:58:05.428Z,44.8
2017-07-25T02:00:05.109Z,44.9
2017-07-25T02:02:10.905Z,44.8
2017-07-25T02:04:05.623Z,44.8
2017-07-25T02:06:05.638Z,44.8
2017-07-25T02:08:08.198Z,44.9
2017-07-25T02:10:07.934Z,44.9
2017-07-25T02:12:08.211Z,44.9
2017-07-25T02:14:05.891Z,44.9
2017-07-25T02:16:05.170Z,44.9
2017-07-25T02:18:15.296Z,44.9
2017-07-25T02:20:05.989Z,44.9
2017-07-25T02:22:05.684Z,44.9
2017-07-25T02:24:05.466Z,44.9
2017-07-25T02:26:05.193Z,44.7
2017-07-25T02:28:05.876Z,44.9
2017-07-25T02:30:08.497Z,44.9
2017-07-25T02:32:05.266Z,44.9
2017-07-25T02:34:05.142Z,44.7
2017-07-25T02:36:05.931Z,45
2017-07-25T02:38:05.638Z,45
2017-07-25T02:40:08.094Z,45
2017-07-25T02:42:11.265Z,44.7
2017-07-25T02:44:08.025Z,45
2017-07-25T02:46:05.733Z,44.7
2017-07-25T02:48:05.482Z,44.8
2017-07-25T02:50:08.393Z,44.7
2017-07-25T02:52:05.080Z,44.7
2017-07-25T02:54:05.958Z,44.8
2017-07-25T02:56:05.253Z,44.8
2017-07-25T02:58:05.049Z,44.8
2017-07-25T03:00:06.043Z,44.7
2017-07-25T03:02:05.749Z,44.8
2017-07-25T03:04:05.515Z,44.8
2017-07-25T03:06:05.313Z,44.8
2017-07-25T03:08:10.164Z,44.8
2017-07-25T03:10:13.429Z,44.8
2017-07-25T03:12:05.465Z,44.8
2017-07-25T03:14:12.829Z,44.8
2017-07-25T03:16:05.071Z,44.8
2017-07-25T03:18:06.036Z,44.8
2017-07-25T03:20:08.320Z,44.8
2017-07-25T03:22:05.539Z,44.8
2017-07-25T03:24:05.219Z,44.8
2017-07-25T03:26:05.961Z,44.8
2017-07-25T03:28:08.358Z,44.8
2017-07-25T03:30:05.104Z,44.8
2017-07-25T03:32:05.398Z,44.8
2017-07-25T03:34:05.105Z,44.9
2017-07-25T03:36:05.807Z,44.9
2017-07-25T03:38:05.514Z,44.9
2017-07-25T03:40:05.231Z,44.9
2017-07-25T03:42:05.562Z,44.9
2017-07-25T03:44:07.874Z,44.9
2017-07-25T03:46:05.591Z,44.9
2017-07-25T03:48:07.836Z,45
2017-07-25T03:50:05.072Z,45
2017-07-25T03:52:05.850Z,45
2017-07-25T03:54:05.533Z,45
2017-07-25T03:56:05.233Z,44.8
2017-07-25T03:58:08.454Z,44.8
2017-07-25T04:00:05.256Z,44.8
2017-07-25T04:02:05.924Z,44.9
2017-07-25T04:04:08.240Z,45
2017-07-25T04:06:06.012Z,45
2017-07-25T04:08:08.258Z,45
2017-07-25T04:10:05.913Z,45
2017-07-25T04:12:05.617Z,44.9
2017-07-25T04:14:07.934Z,45
2017-07-25T04:16:07.750Z,44.7
2017-07-25T04:18:05.754Z,45
2017-07-25T04:20:05.468Z,45
2017-07-25T04:22:05.200Z,45
2017-07-25T04:24:05.937Z,44.8
2017-07-25T04:26:05.190Z,45
2017-07-25T04:28:05.458Z,44.8
2017-07-25T04:30:05.787Z,45
2017-07-25T04:32:11.721Z,45.3
2017-07-25T04:34:08.524Z,44.8
2017-07-25T04:36:10.346Z,45
2017-07-25T04:38:05.051Z,44.7
2017-07-25T04:40:08.288Z,44.7
2017-07-25T04:42:06.034Z,44.8
2017-07-25T04:44:05.768Z,44.8
2017-07-25T04:46:05.568Z,45
2017-07-25T04:48:08.001Z,44.8
2017-07-25T04:50:08.288Z,44.8
2017-07-25T04:52:04.994Z,44.8
2017-07-25T04:54:08.435Z,44.8
2017-07-25T04:56:05.133Z,44.8
2017-07-25T04:58:10.916Z,44.8
2017-07-25T05:00:05.672Z,44.8
2017-07-25T05:02:07.935Z,44.8
2017-07-25T05:04:05.861Z,44.8
2017-07-25T05:06:05.615Z,44.8
2017-07-25T05:08:07.860Z,44.9
2017-07-25T05:10:08.101Z,44.9
2017-07-25T05:12:05.915Z,44.8
2017-07-25T05:14:05.617Z,44.8
2017-07-25T05:16:05.420Z,44.9
2017-07-25T05:18:05.891Z,44.8
2017-07-25T05:20:05.673Z,44.8
2017-07-25T05:22:05.898Z,44.9
2017-07-25T05:24:15.784Z,44.8
2017-07-25T05:26:08.559Z,44.8
2017-07-25T05:28:05.848Z,44.8
2017-07-25T05:30:05.670Z,44.8
2017-07-25T05:32:05.425Z,44.9
2017-07-25T05:34:07.628Z,44.9
2017-07-25T05:36:05.457Z,44.9
2017-07-25T05:38:05.179Z,44.9
2017-07-25T05:40:05.442Z,44.9
2017-07-25T05:42:07.696Z,44.9
2017-07-25T05:44:05.459Z,44.8
2017-07-25T05:46:05.188Z,44.9
2017-07-25T05:48:05.942Z,44.9
2017-07-25T05:50:05.676Z,44.9
2017-07-25T05:52:05.673Z,44.9
2017-07-25T05:54:05.479Z,44.9
2017-07-25T05:56:07.782Z,44.9
2017-07-25T05:58:07.551Z,44.9
2017-07-25T06:00:05.226Z,44.9
2017-07-25T06:02:05.942Z,44.9
2017-07-25T06:04:05.650Z,44.9
2017-07-25T06:06:05.392Z,44.9
2017-07-25T06:08:07.806Z,44.9
2017-07-25T06:10:05.499Z,44.9
2017-07-25T06:12:08.288Z,44.9
2017-07-25T06:14:07.609Z,44.9
2017-07-25T06:16:05.319Z,44.9
2017-07-25T06:18:05.194Z,44.9
2017-07-25T06:20:05.871Z,45
2017-07-25T06:22:05.087Z,45
2017-07-25T06:24:10.882Z,45
2017-07-25T06:26:08.130Z,45
2017-07-25T06:28:06.080Z,45
2017-07-25T06:30:08.409Z,45
2017-07-25T06:32:05.112Z,44.9
2017-07-25T06:34:05.774Z,45
2017-07-25T06:36:05.484Z,45
2017-07-25T06:38:07.928Z,45
2017-07-25T06:40:05.635Z,45
2017-07-25T06:42:08.054Z,45.1
2017-07-25T06:44:08.611Z,45.1
2017-07-25T06:46:08.420Z,45.1
2017-07-25T06:48:05.131Z,45
2017-07-25T06:50:05.818Z,45.1
2017-07-25T06:52:08.117Z,45.2
2017-07-25T06:54:05.344Z,45.2
2017-07-25T06:56:05.125Z,45.2
2017-07-25T06:58:05.377Z,45.2
2017-07-25T07:00:05.113Z,45.3
2017-07-25T07:02:11.042Z,45.4
2017-07-25T07:04:05.744Z,45.4
2017-07-25T07:06:05.503Z,45.4
2017-07-25T07:08:07.723Z,45.4
2017-07-25T07:10:07.933Z,45.4
2017-07-25T07:12:06.797Z,45.4
2017-07-25T07:14:05.477Z,45.4
2017-07-25T07:16:05.194Z,45.7
2017-07-25T07:18:05.138Z,45.5
2017-07-25T07:20:05.868Z,45.9
2017-07-25T07:22:08.070Z,45.8
2017-07-25T07:24:05.700Z,45.8
2017-07-25T07:26:07.950Z,45.9
2017-07-25T07:28:05.926Z,45.9
2017-07-25T07:30:10.730Z,46
2017-07-25T07:32:07.981Z,46
2017-07-25T07:34:08.232Z,45.9
2017-07-25T07:36:05.970Z,45.9
2017-07-25T07:38:05.634Z,45.9
2017-07-25T07:40:18.014Z,45.7
2017-07-25T07:42:05.791Z,45.9
2017-07-25T07:44:05.809Z,45.8
2017-07-25T07:46:05.551Z,46
2017-07-25T07:48:07.814Z,46
2017-07-25T07:50:05.536Z,46
2017-07-25T07:52:05.337Z,46.1
2017-07-25T07:54:04.999Z,46
2017-07-25T07:56:08.281Z,46
2017-07-25T07:58:08.653Z,46
2017-07-25T08:00:05.385Z,46
2017-07-25T08:02:05.621Z,46
2017-07-25T08:04:05.394Z,46
2017-07-25T08:06:05.150Z,46.1
2017-07-25T08:08:10.893Z,46
2017-07-25T08:10:05.612Z,46
2017-07-25T08:12:05.409Z,46
2017-07-25T08:14:05.154Z,45.9
2017-07-25T08:16:11.069Z,46
2017-07-25T08:18:05.496Z,46
2017-07-25T08:20:05.727Z,46.1
2017-07-25T08:22:05.972Z,46
2017-07-25T08:24:05.703Z,46.2
2017-07-25T08:26:05.482Z,46
2017-07-25T08:28:10.243Z,46
2017-07-25T08:30:05.961Z,46
2017-07-25T08:32:05.933Z,46.2
2017-07-25T08:34:05.672Z,46
2017-07-25T08:36:07.922Z,46
2017-07-25T08:38:05.739Z,46
2017-07-25T08:40:05.436Z,46.3
2017-07-25T08:42:05.843Z,46.3
2017-07-25T08:44:08.092Z,46.2
2017-07-25T08:46:10.902Z,46.3
2017-07-25T08:48:05.694Z,46
2017-07-25T08:50:05.933Z,46
2017-07-25T08:52:08.198Z,46
2017-07-25T08:54:05.874Z,46.1
2017-07-25T08:56:08.141Z,46
2017-07-25T08:58:06.012Z,46
2017-07-25T09:00:05.280Z,46.2
2017-07-25T09:02:06.018Z,46
2017-07-25T09:04:10.790Z,46.1
2017-07-25T09:06:08.106Z,46.1
2017-07-25T09:08:05.842Z,46
2017-07-25T09:10:05.095Z,46
2017-07-25T09:12:05.365Z,46.1
2017-07-25T09:14:07.641Z,46.1
2017-07-25T09:16:07.887Z,46.1
2017-07-25T09:18:05.828Z,46.1
2017-07-25T09:20:07.664Z,46
2017-07-25T09:22:05.415Z,46
2017-07-25T09:24:05.093Z,46
2017-07-25T09:26:05.783Z,46
2017-07-25T09:28:08.542Z,46
2017-07-25T09:30:05.256Z,46
2017-07-25T09:32:05.968Z,46
2017-07-25T09:34:05.688Z,46
2017-07-25T09:36:05.933Z,45.9
2017-07-25T09:38:05.180Z,45.9
2017-07-25T09:40:10.949Z,46
2017-07-25T09:42:08.158Z,45.9
2017-07-25T09:44:05.902Z,46.1
2017-07-25T09:46:05.852Z,46.2
2017-07-25T09:48:05.573Z,46.1
2017-07-25T09:50:05.285Z,46.1
2017-07-25T09:52:05.507Z,45.9
2017-07-25T09:54:05.750Z,46.1
2017-07-25T09:56:08.015Z,46.1
2017-07-25T09:58:05.185Z,46.1
2017-07-25T10:00:05.437Z,46.1
2017-07-25T10:02:05.140Z,46.1
2017-07-25T10:04:05.876Z,46.1
2017-07-25T10:06:05.590Z,45.8
2017-07-25T10:08:05.398Z,46
2017-07-25T10:10:05.141Z,46
2017-07-25T10:12:05.906Z,46
2017-07-25T10:14:05.681Z,45.9
2017-07-25T10:16:05.402Z,45.9
2017-07-25T10:18:05.306Z,45.8
2017-07-25T10:20:08.534Z,45.7
2017-07-25T10:22:05.261Z,45.7
2017-07-25T10:24:08.466Z,45.7
2017-07-25T10:26:05.180Z,45.7
2017-07-25T10:28:08.397Z,45.6
2017-07-25T10:30:05.821Z,45.6
2017-07-25T10:32:05.675Z,45.6
2017-07-25T10:34:05.407Z,45.6
2017-07-25T10:36:05.125Z,45.6
2017-07-25T10:38:05.320Z,45.6
2017-07-25T10:40:05.000Z,45.5
2017-07-25T10:42:05.753Z,45.7
2017-07-25T10:44:08.034Z,45.3
2017-07-25T10:46:05.806Z,45.5
2017-07-25T10:48:08.278Z,45.3
2017-07-25T10:50:05.041Z,45.3
2017-07-25T10:52:05.392Z,45.3
2017-07-25T10:54:05.047Z,45.4
2017-07-25T10:56:07.780Z,45.5
2017-07-25T10:58:06.008Z,45.5
2017-07-25T11:00:05.313Z,45.5
2017-07-25T11:02:05.015Z,45.6
2017-07-25T11:04:05.737Z,45.6
2017-07-25T11:06:08.494Z,45.6
2017-07-25T11:08:05.208Z,45.6
2017-07-25T11:10:10.514Z,45.6
2017-07-25T11:12:05.226Z,45.6
2017-07-25T11:14:08.470Z,45.6
2017-07-25T11:16:07.724Z,45.6
2017-07-25T11:18:05.618Z,45.6
2017-07-25T11:20:05.356Z,45.6
2017-07-25T11:22:08.208Z,45.7
2017-07-25T11:24:05.896Z,45.7
2017-07-25T11:26:08.206Z,45.7
2017-07-25T11:28:05.932Z,45.8
2017-07-25T11:30:10.708Z,45.9
2017-07-25T11:32:11.005Z,45.9
2017-07-25T11:34:05.723Z,45.9
2017-07-25T11:36:05.932Z,46.3
2017-07-25T11:38:08.180Z,46.1
2017-07-25T11:40:05.939Z,46
2017-07-25T11:42:05.750Z,46.3
2017-07-25T11:44:08.164Z,46.2
2017-07-25T11:46:05.860Z,46.2
2017-07-25T11:48:05.600Z,46.3
2017-07-25T11:50:07.877Z,46.5
2017-07-25T11:52:07.658Z,46.5
2017-07-25T11:54:12.956Z,46.5
2017-07-25T11:56:05.146Z,46.5
2017-07-25T11:58:05.825Z,46.5
2017-07-25T12:00:06.243Z,46.5
2017-07-25T12:02:08.496Z,46.5
2017-07-25T12:04:05.190Z,46.3
2017-07-25T12:06:05.138Z,46.5
2017-07-25T12:08:05.886Z,46.4
2017-07-25T12:10:05.186Z,46.5
2017-07-25T12:12:05.002Z,46.5
2017-07-25T12:14:05.703Z,46.6
2017-07-25T12:16:05.643Z,46.6
2017-07-25T12:18:10.675Z,46.5
2017-07-25T12:20:10.427Z,46.7
2017-07-25T12:22:07.765Z,46.7
2017-07-25T12:24:08.010Z,46.8
2017-07-25T12:26:08.280Z,46.7
2017-07-25T12:28:08.549Z,46.8
2017-07-25T12:30:05.263Z,46.8
2017-07-25T12:32:11.016Z,46.9
2017-07-25T12:34:05.811Z,46.9
2017-07-25T12:36:05.204Z,47
2017-07-25T12:38:05.974Z,46.9
2017-07-25T12:40:05.719Z,46.8
2017-07-25T12:42:07.982Z,46.9
2017-07-25T12:44:13.562Z,46.9
2017-07-25T12:46:07.828Z,46.9
2017-07-25T12:48:05.511Z,46.9
2017-07-25T12:50:05.246Z,46.9
2017-07-25T12:52:06.143Z,46.9
2017-07-25T12:54:10.932Z,46.9
2017-07-25T12:56:08.164Z,46.9
2017-07-25T12:58:05.824Z,46.9
2017-07-25T13:00:05.506Z,46.8
2017-07-25T13:02:05.273Z,46.9
2017-07-25T13:04:05.616Z,46.9
2017-07-25T13:06:05.337Z,47
2017-07-25T13:08:05.599Z,47
2017-07-25T13:10:08.460Z,47.1
2017-07-25T13:12:05.299Z,47.1
2017-07-25T13:14:05.030Z,46.8
2017-07-25T13:16:10.780Z,47
2017-07-25T13:18:05.168Z,47
2017-07-25T13:20:06.070Z,46.9
2017-07-25T13:22:07.877Z,47
2017-07-25T13:24:05.620Z,47
2017-07-25T13:26:08.402Z,47
2017-07-25T13:28:07.641Z,47
2017-07-25T13:30:05.320Z,47
2017-07-25T13:32:05.009Z,47
2017-07-25T13:34:06.419Z,47.1
2017-07-25T13:36:05.226Z,47.1
2017-07-25T13:38:05.433Z,47.2
2017-07-25T13:40:05.163Z,47.2
2017-07-25T13:42:05.419Z,47.1
2017-07-25T13:44:05.176Z,47.1
2017-07-25T13:46:08.446Z,47.1
2017-07-25T13:48:07.675Z,47
2017-07-25T13:50:05.604Z,47
2017-07-25T13:52:05.080Z,47
2017-07-25T13:54:07.784Z,47.1
2017-07-25T13:56:05.060Z,47
2017-07-25T13:58:05.780Z,47.1
2017-07-25T14:00:05.593Z,47.1
2017-07-25T14:02:05.342Z,47.2
2017-07-25T14:04:05.059Z,47.2
2017-07-25T14:06:05.877Z,46.9
2017-07-25T14:08:10.773Z,46.9
2017-07-25T14:10:05.488Z,46.9
2017-07-25T14:12:08.264Z,47.2
2017-07-25T14:14:05.561Z,46.9
2017-07-25T14:16:05.233Z,47.1
2017-07-25T14:18:05.792Z,47
2017-07-25T14:20:05.216Z,46.8
2017-07-25T14:22:08.501Z,46.7
2017-07-25T14:24:05.391Z,46.7
2017-07-25T14:26:07.596Z,46.7
2017-07-25T14:28:05.394Z,46.7
2017-07-25T14:30:07.747Z,46.8
2017-07-25T14:32:05.442Z,46.8
2017-07-25T14:34:05.197Z,46.9
2017-07-25T14:36:10.949Z,46.8
2017-07-25T14:38:05.670Z,46.8
2017-07-25T14:40:05.454Z,46.8
2017-07-25T14:42:05.397Z,46.8
2017-07-25T14:44:13.201Z,46.8
2017-07-25T14:46:07.992Z,46.7
2017-07-25T14:48:05.753Z,46.7
2017-07-25T14:50:05.514Z,46.7
2017-07-25T14:52:07.789Z,46.6
2017-07-25T14:54:08.055Z,46.5
2017-07-25T14:56:05.333Z,46.5
2017-07-25T14:58:05.119Z,46.2
2017-07-25T15:00:05.327Z,46.2
2017-07-25T15:02:05.093Z,46.4
2017-07-25T15:04:08.360Z,46.1
2017-07-25T15:06:05.610Z,46.3
2017-07-25T15:08:07.849Z,46.3
2017-07-25T15:10:05.544Z,46.1
2017-07-25T15:12:05.435Z,46.1
2017-07-25T15:14:05.656Z,46.3
2017-07-25T15:16:10.482Z,45.9
2017-07-25T15:18:05.360Z,45.9
2017-07-25T15:20:05.022Z,46.2
2017-07-25T15:22:05.734Z,46
2017-07-25T15:24:09.666Z,45.8
2017-07-25T15:26:07.888Z,45.8
2017-07-25T15:28:05.849Z,45.8
2017-07-25T15:30:06.573Z,45.8
2017-07-25T15:32:05.301Z,45.8
2017-07-25T15:34:06.186Z,45.8
2017-07-25T15:36:05.895Z,45.8
2017-07-25T15:38:05.717Z,45.8
2017-07-25T15:40:05.959Z,45.7
2017-07-25T15:42:05.181Z,45.7
2017-07-25T15:44:05.923Z,45.7
2017-07-25T15:46:06.011Z,45.8
2017-07-25T15:48:05.936Z,45.7
2017-07-25T15:50:07.694Z,45.8
2017-07-25T15:52:05.428Z,45.8
2017-07-25T15:54:07.681Z,45.8
2017-07-25T15:56:05.893Z,45.8
2017-07-25T15:58:06.433Z,45.8
2017-07-25T16:00:05.179Z,45.8
2017-07-25T16:02:05.694Z,45.8
2017-07-25T16:04:05.979Z,45.9
2017-07-25T16:06:11.164Z,45.8
2017-07-25T16:08:05.863Z,45.8
2017-07-25T16:10:05.563Z,45.9
2017-07-25T16:12:10.328Z,45.9
2017-07-25T16:14:05.032Z,45.9
2017-07-25T16:16:05.701Z,45.9
2017-07-25T16:18:05.634Z,45.9
2017-07-25T16:20:05.989Z,46
2017-07-25T16:22:05.726Z,45.7
2017-07-25T16:24:07.953Z,45.9
2017-07-25T16:26:05.851Z,45.9
2017-07-25T16:28:10.171Z,46
2017-07-25T16:30:06.898Z,46
2017-07-25T16:32:10.917Z,46
2017-07-25T16:34:05.215Z,46
2017-07-25T16:36:05.963Z,46
2017-07-25T16:38:08.338Z,45.8
2017-07-25T16:40:05.109Z,45.8
2017-07-25T16:42:08.383Z,45.9
2017-07-25T16:44:05.117Z,45.9
2017-07-25T16:46:05.903Z,45.9
2017-07-25T16:48:05.803Z,45.9
2017-07-25T16:50:05.494Z,45.9
2017-07-25T16:52:12.821Z,46
2017-07-25T16:54:05.594Z,46
2017-07-25T16:56:05.335Z,46
2017-07-25T16:58:12.822Z,46
2017-07-25T17:00:08.120Z,46.1
2017-07-25T17:02:06.009Z,46
2017-07-25T17:04:05.222Z,46
2017-07-25T17:06:05.903Z,46.1
2017-07-25T17:08:10.404Z,46.1
2017-07-25T17:10:05.090Z,46.1
2017-07-25T17:12:09.364Z,46
2017-07-25T17:14:08.111Z,46.1
2017-07-25T17:16:06.778Z,46
2017-07-25T17:18:05.703Z,46.1
2017-07-25T17:20:05.689Z,45.9
2017-07-25T17:22:05.358Z,45.9
2017-07-25T17:24:05.121Z,46.1
2017-07-25T17:26:05.874Z,46.1
2017-07-25T17:28:05.822Z,46.1
2017-07-25T17:30:08.300Z,46.1
2017-07-25T17:32:05.136Z,45.9
2017-07-25T17:34:11.148Z,46
2017-07-25T17:36:10.879Z,45.9
2017-07-25T17:38:08.111Z,46.1
2017-07-25T17:40:16.981Z,45.9
2017-07-25T17:42:05.203Z,45.9
2017-07-25T17:44:05.142Z,46.1
2017-07-25T17:46:10.500Z,46.1
2017-07-25T17:48:05.187Z,45.9
2017-07-25T17:50:05.982Z,46.2
2017-07-25T17:52:05.763Z,46.2
2017-07-25T17:54:05.458Z,46.2
2017-07-25T17:56:05.149Z,46.2
2017-07-25T17:58:08.453Z,46
2017-07-25T18:00:05.161Z,46.2
2017-07-25T18:02:13.513Z,46
2017-07-25T18:04:14.411Z,46
2017-07-25T18:06:10.229Z,45.9
2017-07-25T18:08:10.582Z,45.9
2017-07-25T18:10:05.302Z,45.9
2017-07-25T18:12:05.635Z,45.9
2017-07-25T18:14:07.884Z,46.2
2017-07-25T18:16:05.652Z,45.9
2017-07-25T18:18:05.593Z,46.1
2017-07-25T18:20:05.304Z,45.9
2017-07-25T18:22:05.992Z,46.1
2017-07-25T18:24:05.935Z,46
2017-07-25T18:26:05.659Z,46.1
2017-07-25T18:28:07.897Z,46.1
2017-07-25T18:30:05.079Z,46.1
2017-07-25T18:32:05.759Z,46.2
2017-07-25T18:34:05.468Z,46.3
2017-07-25T18:36:10.231Z,46.5
2017-07-25T18:38:05.948Z,46.5
2017-07-25T18:40:05.685Z,46.5
2017-07-25T18:42:07.922Z,46.7
2017-07-25T18:44:05.187Z,46.7
2017-07-25T18:46:05.912Z,46.9
2017-07-25T18:48:05.651Z,46.8
2017-07-25T18:50:05.332Z,46.9
2017-07-25T18:52:10.105Z,46.8
2017-07-25T18:54:05.847Z,46.8
2017-07-25T18:56:10.659Z,46.7
2017-07-25T18:58:05.396Z,46.9
2017-07-25T19:00:05.646Z,46.6
2017-07-25T19:02:05.378Z,46.9
2017-07-25T19:04:07.678Z,47
2017-07-25T19:06:05.391Z,47
2017-07-25T19:08:05.104Z,47.1
2017-07-25T19:10:05.823Z,46.8
2017-07-25T19:12:05.596Z,46.9
2017-07-25T19:14:05.867Z,47.1
2017-07-25T19:16:10.243Z,47.1
2017-07-25T19:18:05.123Z,47.1
2017-07-25T19:20:05.835Z,47.1
2017-07-25T19:22:08.091Z,47.1
2017-07-25T19:24:08.311Z,47.1
2017-07-25T19:26:10.079Z,47.1
2017-07-25T19:28:05.830Z,47.1
2017-07-25T19:30:05.565Z,47.2
2017-07-25T19:32:05.215Z,47.2
2017-07-25T19:34:10.967Z,47.2
2017-07-25T19:36:05.612Z,47.2
2017-07-25T19:38:05.321Z,47.1
2017-07-25T19:40:10.112Z,47.2
2017-07-25T19:42:05.837Z,47.2
2017-07-25T19:44:05.114Z,47.2
2017-07-25T19:46:08.559Z,47.2
2017-07-25T19:48:05.290Z,47.2
2017-07-25T19:50:06.050Z,47.1
2017-07-25T19:52:05.342Z,47.1
2017-07-25T19:54:05.038Z,47.2
2017-07-25T19:56:05.767Z,47.2
2017-07-25T19:58:05.102Z,47.1
2017-07-25T20:00:05.814Z,47.1
2017-07-25T20:02:05.033Z,47.2
2017-07-25T20:04:08.243Z,47.1
2017-07-25T20:06:11.006Z,47.1
2017-07-25T20:08:05.978Z,47.1
2017-07-25T20:10:05.701Z,47.1
2017-07-25T20:12:05.420Z,47.1
2017-07-25T20:14:05.183Z,47.1
2017-07-25T20:16:05.430Z,47
2017-07-25T20:18:05.387Z,47.1
2017-07-25T20:20:10.207Z,47.1
2017-07-25T20:22:05.451Z,47.1
2017-07-25T20:24:05.737Z,47.1
2017-07-25T20:26:06.020Z,46.9
2017-07-25T20:28:06.512Z,47.1
2017-07-25T20:30:05.246Z,46.9
2017-07-25T20:32:06.015Z,47
2017-07-25T20:34:05.718Z,47
2017-07-25T20:36:07.936Z,46.9
2017-07-25T20:38:05.945Z,46.9
2017-07-25T20:40:11.013Z,46.9
2017-07-25T20:42:13.309Z,46.8
2017-07-25T20:44:05.016Z,46.8
2017-07-25T20:46:10.761Z,46.9
2017-07-25T20:48:05.543Z,46.8
2017-07-25T20:50:10.289Z,46.8
2017-07-25T20:52:05.521Z,46.8
2017-07-25T20:54:05.782Z,46.8
2017-07-25T20:56:05.731Z,46.8
2017-07-25T20:58:08.426Z,46.9
2017-07-25T21:00:05.310Z,46.9
2017-07-25T21:02:05.057Z,46.8
2017-07-25T21:04:08.310Z,46.8
2017-07-25T21:06:07.536Z,46.8
2017-07-25T21:08:07.945Z,46.9
2017-07-25T21:10:05.659Z,47
2017-07-25T21:12:05.824Z,46.9
2017-07-25T21:14:06.603Z,46.8
2017-07-25T21:16:05.438Z,46.8
2017-07-25T21:18:05.619Z,46.8
2017-07-25T21:20:06.125Z,46.8
2017-07-25T21:22:05.850Z,46.8
2017-07-25T21:24:08.620Z,46.8
2017-07-25T21:26:05.576Z,46.8
2017-07-25T21:28:05.520Z,46.7
2017-07-25T21:30:07.782Z,46.8
2017-07-25T21:32:05.515Z,46.8
2017-07-25T21:34:05.775Z,46.8
2017-07-25T21:36:05.475Z,46.8
2017-07-25T21:38:05.174Z,46.8
2017-07-25T21:40:08.459Z,46.8
2017-07-25T21:42:05.207Z,46.8
2017-07-25T21:44:05.882Z,46.8
2017-07-25T21:46:05.775Z,46.7
2017-07-25T21:48:05.684Z,46.8
2017-07-25T21:50:05.464Z,46.8
2017-07-25T21:52:05.395Z,46.8
2017-07-25T21:54:05.067Z,46.8
2017-07-25T21:56:05.288Z,46.8
2017-07-25T21:58:06.338Z,46.8
2017-07-25T22:00:05.083Z,46.7
2017-07-25T22:02:05.417Z,46.7
2017-07-25T22:04:05.157Z,46.7
2017-07-25T22:06:05.840Z,46.7
2017-07-25T22:08:05.598Z,46.6
2017-07-25T22:10:07.789Z,46.5
2017-07-25T22:12:05.533Z,46.5
2017-07-25T22:14:05.388Z,46.6
2017-07-25T22:16:10.203Z,46.5
2017-07-25T22:18:07.638Z,46.6
2017-07-25T22:20:10.437Z,46.7
2017-07-25T22:22:05.179Z,46.5
2017-07-25T22:24:05.463Z,46.5
2017-07-25T22:26:07.791Z,46.7
2017-07-25T22:28:05.576Z,46.5
2017-07-25T22:30:05.446Z,46.7
2017-07-25T22:32:07.896Z,46.5
2017-07-25T22:34:05.644Z,46.6
2017-07-25T22:36:07.872Z,46.5
2017-07-25T22:38:08.292Z,46.5
2017-07-25T22:40:05.986Z,46.7
2017-07-25T22:42:05.232Z,46.6
2017-07-25T22:44:06.008Z,46.7
2017-07-25T22:46:08.260Z,46.9
2017-07-25T22:48:06.236Z,46.9
2017-07-25T22:50:06.230Z,47
2017-07-25T22:52:08.612Z,47
2017-07-25T22:54:05.341Z,47
2017-07-25T22:56:08.693Z,47.2
2017-07-25T22:58:05.403Z,47.2
2017-07-25T23:00:05.106Z,47.1
2017-07-25T23:02:08.502Z,47.3
2017-07-25T23:04:05.210Z,47.1
2017-07-25T23:06:05.468Z,47.1
2017-07-25T23:08:07.702Z,47.3
2017-07-25T23:10:05.378Z,47.3
2017-07-25T23:12:07.625Z,47.4
2017-07-25T23:14:08.563Z,47.3
2017-07-25T23:16:05.273Z,47.3
2017-07-25T23:18:05.360Z,47.3
2017-07-25T23:20:07.807Z,47.4
2017-07-25T23:22:10.575Z,47.5
2017-07-25T23:24:05.408Z,47.5
2017-07-25T23:26:08.353Z,47.6
2017-07-25T23:28:05.073Z,47.5
2017-07-25T23:30:08.284Z,47.6
2017-07-25T23:32:06.007Z,47.4
2017-07-25T23:34:10.923Z,47.4
2017-07-25T23:36:05.183Z,47.4
2017-07-25T23:38:05.935Z,47.4
2017-07-25T23:40:05.301Z,47.5
2017-07-25T23:42:05.144Z,47.5
2017-07-25T23:44:06.058Z,47.5
2017-07-25T23:46:05.347Z,47.5
2017-07-25T23:48:05.541Z,47.6
2017-07-25T23:50:05.385Z,47.4
2017-07-25T23:52:05.684Z,47.4
2017-07-25T23:54:05.426Z,47.5
2017-07-25T23:56:05.211Z,47.5
2017-07-25T23:58:05.920Z,47.5
